Time;durP1;ratioP1;P1;durP2;ratioP2;P2;SDS_P1;SDS_P2;PMS_P1;PMS_P2;Temp;Humidity;BMP_temperature;BMP_pressure;BME280_temperature;BME280_humidity;BME280_pressure;Samples;Min_cycle;Max_cycle;Signal;HPM_P1;HPM_P2
2022/11/25 00:01:23;;;;;;;13.40;3.85;;;8.00;99.90;;;;;;5133241;27;20499;-79
2022/11/25 00:03:51;;;;;;;18.67;4.00;;;8.30;99.90;;;;;;5114351;27;20051;-78
2022/11/25 00:06:22;;;;;;;16.77;4.57;;;8.00;99.90;;;;;;5113231;27;20047;-78
2022/11/25 00:08:50;;;;;;;17.25;3.63;;;8.00;99.90;;;;;;5133847;27;20038;-78
2022/11/25 00:11:17;;;;;;;9.82;3.47;;;8.10;99.90;;;;;;5115100;27;20043;-78
2022/11/25 00:13:43;;;;;;;16.20;3.80;;;8.10;99.90;;;;;;5133807;27;20495;-78
2022/11/25 00:16:12;;;;;;;18.13;3.53;;;8.20;99.90;;;;;;5115149;27;20058;-78
2022/11/25 00:18:38;;;;;;;20.80;4.07;;;8.40;99.90;;;;;;5133694;27;20130;-79
2022/11/25 00:21:09;;;;;;;12.93;3.78;;;8.10;99.90;;;;;;5133426;27;20053;-78
2022/11/25 00:23:36;;;;;;;19.10;4.43;;;8.30;99.90;;;;;;5097985;28;20039;-78
2022/11/25 00:26:07;;;;;;;13.48;3.83;;;8.10;99.90;;;;;;5121203;27;20057;-78
2022/11/25 00:28:32;;;;;;;15.13;3.80;;;8.20;99.90;;;;;;5113014;28;20048;-79
2022/11/25 00:31:10;;;;;;;15.07;3.88;;;8.30;99.90;;;;;;5094582;28;20050;-79
2022/11/25 00:33:37;;;;;;;18.42;3.72;;;8.20;99.90;;;;;;5112554;28;20054;-78
2022/11/25 00:36:04;;;;;;;14.90;3.92;;;8.30;99.90;;;;;;5123699;28;20036;-79
2022/11/25 00:38:30;;;;;;;17.05;4.00;;;8.30;99.90;;;;;;5106919;28;20047;-78
2022/11/25 00:46:25;;;;;;;14.20;4.10;;;8.30;99.90;;;;;;5118258;27;20401;-78
2022/11/25 00:48:51;;;;;;;18.70;3.78;;;8.30;99.90;;;;;;5118628;27;20130;-78
2022/11/25 00:51:17;;;;;;;11.73;3.38;;;8.40;99.90;;;;;;5118601;27;20118;-79
2022/11/25 00:53:43;;;;;;;17.58;4.30;;;8.30;99.90;;;;;;5119030;27;20126;-78
2022/11/25 00:56:14;;;;;;;12.55;3.90;;;8.40;99.90;;;;;;5118524;27;20074;-78
2022/11/25 00:58:41;;;;;;;16.48;4.53;;;8.40;99.90;;;;;;5137468;27;20035;-79
2022/11/25 01:01:07;;;;;;;16.30;3.75;;;8.30;99.90;;;;;;5136415;27;20023;-79
2022/11/25 01:03:35;;;;;;;16.02;4.13;;;9.80;99.90;;;;;;5101077;27;20042;-78
2022/11/25 01:06:03;;;;;;;16.90;4.60;;;8.40;99.90;;;;;;5104137;28;20050;-79
2022/11/25 01:08:29;;;;;;;15.00;4.53;;;8.30;99.90;;;;;;5097970;28;20043;-78
2022/11/25 01:10:59;;;;;;;16.63;4.55;;;8.40;99.90;;;;;;5097347;27;20074;-78
2022/11/25 01:13:25;;;;;;;13.68;4.15;;;8.30;99.90;;;;;;5136860;27;20043;-79
2022/11/25 01:15:51;;;;;;;16.90;5.43;;;8.30;99.90;;;;;;5119193;27;20096;-79
2022/11/25 01:18:16;;;;;;;13.57;4.28;;;8.40;99.90;;;;;;5118673;27;20130;-78
2022/11/25 01:20:42;;;;;;;17.85;4.53;;;8.30;99.90;;;;;;5136620;27;20086;-78
2022/11/25 01:23:08;;;;;;;16.73;4.35;;;8.30;99.90;;;;;;5118382;27;20050;-78
2022/11/25 01:25:37;;;;;;;14.80;4.32;;;8.30;99.90;;;;;;5118408;27;20031;-79
2022/11/25 01:28:03;;;;;;;18.52;4.88;;;8.30;99.90;;;;;;5136702;27;20039;-78
2022/11/25 01:30:29;;;;;;;17.90;4.53;;;8.30;99.90;;;;;;5118166;27;20051;-78
2022/11/25 01:32:55;;;;;;;18.45;4.40;;;8.30;99.90;;;;;;5136569;27;20047;-79
2022/11/25 01:35:20;;;;;;;14.65;3.92;;;8.30;99.90;;;;;;5118308;27;20043;-78
2022/11/25 01:37:46;;;;;;;19.98;4.60;;;8.30;99.90;;;;;;5136311;27;20039;-79
2022/11/25 01:40:12;;;;;;;14.32;4.15;;;8.80;99.90;;;;;;5117184;27;20109;-79
2022/11/25 01:42:47;;;;;;;18.02;4.63;;;8.20;99.90;;;;;;5136417;27;20356;-77
2022/11/25 01:45:36;;;;;;;13.68;3.95;;;8.20;99.90;;;;;;5117211;27;20040;-78
2022/11/25 01:48:11;;;;;;;19.25;4.95;;;8.20;99.90;;;;;;5118251;27;20059;-77
2022/11/25 01:50:38;;;;;;;15.05;4.47;;;8.20;99.90;;;;;;5135704;27;20398;-77
2022/11/25 01:53:08;;;;;;;19.13;5.15;;;8.20;99.90;;;;;;5135866;27;20046;-77
2022/11/25 01:55:37;;;;;;;15.20;4.35;;;8.20;99.90;;;;;;5135649;27;20395;-77
2022/11/25 01:58:13;;;;;;;17.05;4.65;;;8.40;99.90;;;;;;5135900;27;20039;-78
2022/11/25 02:00:39;;;;;;;17.20;4.28;;;8.20;99.90;;;;;;5135969;27;20066;-79
2022/11/25 02:03:06;;;;;;;15.30;4.53;;;9.30;99.90;;;;;;5135854;27;20039;-79
2022/11/25 02:05:41;;;;;;;17.90;4.40;;;8.20;99.90;;;;;;5117544;27;20051;-79
2022/11/25 02:08:08;;;;;;;22.20;4.70;;;8.20;99.90;;;;;;5099138;27;20043;-79
2022/11/25 02:10:35;;;;;;;15.90;4.45;;;8.20;99.90;;;;;;5115761;27;20050;-79
2022/11/25 02:13:01;;;;;;;19.20;5.25;;;8.10;99.90;;;;;;5135144;27;20511;-79
2022/11/25 02:15:29;;;;;;;20.50;4.68;;;8.20;99.90;;;;;;5135514;27;20046;-79
2022/11/25 02:17:55;;;;;;;14.57;4.57;;;8.20;99.90;;;;;;5135993;27;20409;-79
2022/11/25 02:20:22;;;;;;;16.70;4.72;;;8.70;99.90;;;;;;5099545;27;20126;-79
2022/11/25 02:23:18;;;;;;;15.82;5.22;;;8.20;99.90;;;;;;5135302;27;20043;-79
2022/11/25 02:25:45;;;;;;;13.95;4.63;;;8.10;99.90;;;;;;5117080;27;20081;-79
2022/11/25 02:28:17;;;;;;;18.70;4.43;;;8.50;99.90;;;;;;5117660;27;20425;-79
2022/11/25 02:30:43;;;;;;;18.02;4.95;;;8.10;99.90;;;;;;5135194;27;20071;-78
2022/11/25 02:33:09;;;;;;;18.77;5.35;;;8.00;99.90;;;;;;5135374;27;20085;-79
2022/11/25 02:35:40;;;;;;;19.83;4.65;;;8.00;99.90;;;;;;5114666;27;20074;-79
2022/11/25 02:38:12;;;;;;;18.50;5.72;;;8.00;99.90;;;;;;5123880;27;20039;-79
2022/11/25 02:40:57;;;;;;;17.95;4.75;;;8.00;99.90;;;;;;5098470;27;20043;-79
2022/11/25 02:43:23;;;;;;;16.63;4.60;;;8.00;99.90;;;;;;5098075;27;20047;-78
2022/11/25 02:45:56;;;;;;;14.82;4.65;;;9.00;99.90;;;;;;5133164;27;20487;-79
2022/11/25 02:48:23;;;;;;;21.70;5.13;;;8.00;99.90;;;;;;5135482;27;20407;-78
2022/11/25 02:50:49;;;;;;;19.27;5.20;;;8.00;99.90;;;;;;5135198;27;20066;-79
2022/11/25 02:53:15;;;;;;;17.88;4.90;;;8.00;99.90;;;;;;5115792;27;20039;-79
2022/11/25 02:55:41;;;;;;;17.70;5.40;;;8.00;99.90;;;;;;5116211;27;20051;-79
2022/11/25 02:58:07;;;;;;;19.20;5.45;;;8.00;99.90;;;;;;5116607;27;20043;-79
2022/11/25 03:00:33;;;;;;;18.92;4.85;;;9.30;99.90;;;;;;5134813;27;20035;-79
2022/11/25 03:02:59;;;;;;;19.58;5.10;;;7.90;99.90;;;;;;5098875;27;20039;-79
2022/11/25 03:05:24;;;;;;;15.55;5.03;;;8.00;99.90;;;;;;5134277;27;20050;-79
2022/11/25 03:07:50;;;;;;;21.85;5.07;;;8.30;99.90;;;;;;5113232;27;20039;-79
2022/11/25 03:10:16;;;;;;;19.05;5.85;;;8.00;99.90;;;;;;5106670;27;20042;-79
2022/11/25 03:12:42;;;;;;;15.43;4.65;;;8.10;99.90;;;;;;5134561;27;20459;-79
2022/11/25 03:15:09;;;;;;;18.88;6.50;;;8.20;99.90;;;;;;5132377;27;20118;-79
2022/11/25 03:17:35;;;;;;;16.95;4.68;;;8.10;99.90;;;;;;5116310;27;20127;-79
2022/11/25 03:20:00;;;;;;;18.77;5.93;;;8.00;99.90;;;;;;5133988;27;20043;-78
2022/11/25 03:22:26;;;;;;;26.52;7.00;;;8.40;99.90;;;;;;5095682;28;20039;-78
2022/11/25 03:24:52;;;;;;;16.90;5.78;;;8.00;99.90;;;;;;5114207;27;20083;-78
2022/11/25 03:27:17;;;;;;;17.70;5.60;;;8.00;99.90;;;;;;5132998;27;20395;-77
2022/11/25 03:29:43;;;;;;;18.20;6.50;;;8.00;99.90;;;;;;5116070;27;20070;-79
2022/11/25 03:32:09;;;;;;;24.35;7.38;;;8.00;99.90;;;;;;5115421;27;20082;-79
2022/11/25 03:34:34;;;;;;;20.38;6.68;;;8.00;99.90;;;;;;5133816;27;20111;-79
2022/11/25 03:37:00;;;;;;;17.80;6.18;;;9.00;99.90;;;;;;5115706;27;20526;-79
2022/11/25 03:39:26;;;;;;;16.00;6.70;;;9.60;99.90;;;;;;5133952;27;20068;-79
2022/11/25 03:41:51;;;;;;;21.25;6.57;;;8.20;99.90;;;;;;5133575;27;20043;-79
2022/11/25 03:44:17;;;;;;;18.55;6.95;;;8.20;99.90;;;;;;5115562;27;20095;-79
2022/11/25 03:46:43;;;;;;;17.58;6.40;;;8.10;99.90;;;;;;5115126;27;20058;-79
2022/11/25 03:49:08;;;;;;;17.83;6.47;;;8.10;99.90;;;;;;5134302;27;20058;-79
2022/11/25 03:51:34;;;;;;;21.83;7.00;;;9.40;99.90;;;;;;5113376;27;20035;-79
2022/11/25 03:54:00;;;;;;;19.02;6.72;;;8.20;99.90;;;;;;5098852;27;20133;-79
2022/11/25 03:56:25;;;;;;;22.35;7.38;;;9.20;99.90;;;;;;5133368;27;20376;-79
2022/11/25 03:58:51;;;;;;;17.50;6.10;;;8.30;99.90;;;;;;5131512;27;20609;-80
2022/11/25 04:01:16;;;;;;;23.65;7.03;;;8.80;99.90;;;;;;5131455;27;20087;-79
2022/11/25 04:03:42;;;;;;;19.10;7.10;;;8.20;99.90;;;;;;5133822;27;20047;-79
2022/11/25 04:06:08;;;;;;;18.50;7.65;;;9.50;99.90;;;;;;5115549;27;20031;-79
2022/11/25 04:08:34;;;;;;;25.10;7.75;;;9.80;99.90;;;;;;5133429;27;20039;-79
2022/11/25 04:10:59;;;;;;;21.23;7.70;;;8.20;99.90;;;;;;5133215;27;20039;-79
2022/11/25 04:13:25;;;;;;;24.17;8.40;;;8.20;99.90;;;;;;5114707;27;20078;-79
2022/11/25 04:15:51;;;;;;;24.23;7.82;;;8.20;99.90;;;;;;5113407;27;20047;-79
2022/11/25 04:18:17;;;;;;;21.83;8.27;;;7.80;99.90;;;;;;5131316;27;20465;-79
2022/11/25 04:20:43;;;;;;;24.23;8.45;;;8.20;99.90;;;;;;5132475;27;20050;-79
2022/11/25 04:23:10;;;;;;;26.45;9.02;;;8.20;99.90;;;;;;5097955;27;20078;-79
2022/11/25 04:25:36;;;;;;;25.52;8.25;;;8.20;99.90;;;;;;5132051;27;20051;-79
2022/11/25 04:28:03;;;;;;;22.23;7.90;;;9.70;99.90;;;;;;5132656;27;20527;-79
2022/11/25 04:30:28;;;;;;;22.10;8.48;;;8.20;99.90;;;;;;5115133;28;20080;-79
2022/11/25 04:32:54;;;;;;;25.35;9.00;;;9.80;99.90;;;;;;5133495;28;20035;-79
2022/11/25 04:35:20;;;;;;;26.13;9.23;;;8.60;99.90;;;;;;5132801;28;20043;-79
2022/11/25 04:37:46;;;;;;;23.25;9.13;;;9.00;99.90;;;;;;5112974;28;20035;-79
2022/11/25 04:40:13;;;;;;;28.05;9.10;;;8.10;99.90;;;;;;5131122;27;20031;-79
2022/11/25 04:42:38;;;;;;;23.55;9.30;;;8.10;99.90;;;;;;5115141;28;20051;-79
2022/11/25 04:45:07;;;;;;;26.80;9.32;;;9.30;99.90;;;;;;5132826;27;20055;-79
2022/11/25 04:47:34;;;;;;;25.77;8.80;;;8.10;99.90;;;;;;5133165;28;20054;-79
2022/11/25 04:49:59;;;;;;;24.92;9.82;;;8.20;99.90;;;;;;5133315;28;20122;-79
2022/11/25 04:52:25;;;;;;;24.05;8.95;;;8.80;99.90;;;;;;5114527;28;20139;-80
2022/11/25 04:54:50;;;;;;;28.75;9.90;;;8.20;99.90;;;;;;5114515;28;20047;-79
2022/11/25 04:57:16;;;;;;;26.45;9.43;;;8.20;99.90;;;;;;5133070;28;20050;-79
2022/11/25 04:59:42;;;;;;;27.00;9.73;;;8.20;99.90;;;;;;5132982;28;20039;-80
2022/11/25 05:02:12;;;;;;;25.00;9.57;;;8.20;99.90;;;;;;5114339;28;20084;-79
2022/11/25 05:04:37;;;;;;;24.45;8.63;;;8.20;99.90;;;;;;5114084;28;20115;-79
2022/11/25 05:07:03;;;;;;;25.27;9.57;;;9.10;99.90;;;;;;5132568;28;20043;-79
2022/11/25 05:09:29;;;;;;;28.05;10.02;;;8.30;99.90;;;;;;5096791;28;20051;-80
2022/11/25 05:11:54;;;;;;;25.95;9.93;;;9.60;99.90;;;;;;5132543;28;20081;-80
2022/11/25 05:14:21;;;;;;;25.65;9.65;;;8.20;99.90;;;;;;5114610;28;20130;-79
2022/11/25 05:16:47;;;;;;;28.25;10.02;;;8.20;99.90;;;;;;5132495;28;20050;-80
2022/11/25 05:19:12;;;;;;;29.40;10.60;;;8.20;99.90;;;;;;5115038;28;20043;-78
2022/11/25 05:21:38;;;;;;;29.02;9.73;;;8.30;99.90;;;;;;5132428;28;20043;-79
2022/11/25 05:24:04;;;;;;;23.73;10.38;;;8.20;99.90;;;;;;5114997;28;20417;-80
2022/11/25 05:26:29;;;;;;;26.65;10.25;;;8.30;99.90;;;;;;5129472;28;20489;-80
2022/11/25 05:28:55;;;;;;;25.60;10.48;;;8.20;99.90;;;;;;5097519;28;20039;-80
2022/11/25 05:31:20;;;;;;;26.83;11.00;;;8.30;99.90;;;;;;5134237;27;20039;-80
2022/11/25 05:33:46;;;;;;;27.25;11.30;;;8.30;99.90;;;;;;5136003;27;20179;-80
2022/11/25 05:36:11;;;;;;;29.70;10.48;;;8.20;99.90;;;;;;5117623;27;20348;-80
2022/11/25 05:38:37;;;;;;;27.35;10.68;;;8.30;99.90;;;;;;5134106;27;20050;-79
2022/11/25 05:41:05;;;;;;;26.60;11.40;;;8.30;99.90;;;;;;5135090;27;20031;-79
2022/11/25 05:43:31;;;;;;;28.80;10.50;;;8.30;99.90;;;;;;5117073;27;20059;-80
2022/11/25 05:45:57;;;;;;;24.98;10.55;;;8.30;99.90;;;;;;5117034;27;20055;-80
2022/11/25 05:48:23;;;;;;;25.02;10.27;;;8.30;99.90;;;;;;5117653;27;20122;-80
2022/11/25 05:50:48;;;;;;;31.63;11.73;;;8.30;99.90;;;;;;5117349;27;20125;-80
2022/11/25 05:53:16;;;;;;;22.90;10.38;;;9.30;99.90;;;;;;5135925;27;20043;-77
2022/11/25 05:55:42;;;;;;;19.63;9.45;;;8.30;99.90;;;;;;5116872;27;20122;-80
2022/11/25 05:58:08;;;;;;;24.98;10.70;;;8.30;99.90;;;;;;5133913;27;20031;-78
2022/11/25 06:00:34;;;;;;;26.67;11.30;;;9.00;99.90;;;;;;5116883;27;20101;-77
2022/11/25 06:02:59;;;;;;;25.02;10.65;;;8.30;99.90;;;;;;5100325;27;20058;-79
2022/11/25 06:05:25;;;;;;;23.80;10.50;;;8.30;99.90;;;;;;5135441;27;20462;-78
2022/11/25 06:07:51;;;;;;;21.27;9.98;;;8.40;99.90;;;;;;5135548;27;20395;-78
2022/11/25 06:10:17;;;;;;;21.35;10.35;;;8.40;99.90;;;;;;5098662;27;20058;-78
2022/11/25 06:12:43;;;;;;;23.02;10.48;;;8.40;99.90;;;;;;5116647;27;20054;-78
2022/11/25 06:15:09;;;;;;;25.15;11.02;;;8.80;99.90;;;;;;5124213;27;20036;-78
2022/11/25 06:17:35;;;;;;;21.65;11.00;;;8.40;99.90;;;;;;5115331;28;20039;-78
2022/11/25 06:20:01;;;;;;;25.45;11.68;;;8.40;99.90;;;;;;5115068;27;20558;-78
2022/11/25 06:22:29;;;;;;;28.75;11.43;;;8.40;99.90;;;;;;5117123;27;20043;-78
2022/11/25 06:24:55;;;;;;;22.98;11.80;;;9.40;99.90;;;;;;5116420;27;20039;-78
2022/11/25 06:27:20;;;;;;;24.52;10.52;;;8.40;99.90;;;;;;5115986;27;20050;-78
2022/11/25 06:29:46;;;;;;;25.48;10.95;;;8.40;99.90;;;;;;5135136;27;20399;-78
2022/11/25 06:32:12;;;;;;;26.70;10.75;;;8.40;99.90;;;;;;5135449;27;20070;-77
2022/11/25 06:34:41;;;;;;;24.30;11.10;;;8.50;99.90;;;;;;5099438;27;20482;-78
2022/11/25 06:37:07;;;;;;;27.13;10.68;;;8.40;99.90;;;;;;5116684;27;20039;-78
2022/11/25 06:39:33;;;;;;;24.17;10.80;;;8.50;99.90;;;;;;5132448;27;20119;-78
2022/11/25 06:41:59;;;;;;;21.67;10.57;;;8.50;99.90;;;;;;5114410;28;20070;-77
2022/11/25 06:44:24;;;;;;;20.88;9.90;;;8.50;99.90;;;;;;5116276;27;20039;-78
2022/11/25 06:46:50;;;;;;;25.67;10.40;;;8.50;99.90;;;;;;5135100;27;20055;-77
2022/11/25 06:49:16;;;;;;;22.30;10.10;;;9.90;99.90;;;;;;5135062;27;20515;-78
2022/11/25 06:51:41;;;;;;;24.25;9.95;;;8.60;99.90;;;;;;5116521;27;20047;-78
2022/11/25 06:54:09;;;;;;;21.20;9.35;;;8.50;99.90;;;;;;5130654;27;20046;-77
2022/11/25 06:56:35;;;;;;;18.52;9.43;;;9.50;99.90;;;;;;5116397;27;20491;-78
2022/11/25 06:59:01;;;;;;;25.48;9.80;;;8.60;99.90;;;;;;5134986;27;20043;-77
2022/11/25 07:01:30;;;;;;;21.42;9.00;;;8.60;99.90;;;;;;5115500;27;20066;-78
2022/11/25 07:04:02;;;;;;;19.42;8.50;;;8.50;99.90;;;;;;5135005;27;20463;-77
2022/11/25 07:06:28;;;;;;;23.27;9.43;;;8.50;99.90;;;;;;5116208;27;20143;-78
2022/11/25 07:08:54;;;;;;;24.60;9.30;;;9.60;99.90;;;;;;5116538;27;20385;-78
2022/11/25 07:11:31;;;;;;;21.75;8.45;;;8.60;99.90;;;;;;5115759;27;20051;-77
2022/11/25 07:14:00;;;;;;;21.05;8.82;;;8.60;99.90;;;;;;5134916;27;20391;-77
2022/11/25 07:16:26;;;;;;;20.45;8.30;;;10.00;99.90;;;;;;5112736;27;20419;-77
2022/11/25 07:18:52;;;;;;;19.63;8.75;;;8.70;99.90;;;;;;5132858;27;20217;-77
2022/11/25 07:21:21;;;;;;;19.40;7.50;;;8.70;99.90;;;;;;5113912;27;20551;-77
2022/11/25 07:23:47;;;;;;;20.27;7.45;;;8.70;99.90;;;;;;5113242;27;20051;-77
2022/11/25 07:26:20;;;;;;;23.08;8.25;;;9.30;99.90;;;;;;5101568;28;20035;-77
2022/11/25 07:28:46;;;;;;;16.25;6.88;;;8.70;99.90;;;;;;5094291;28;20126;-77
2022/11/25 07:31:17;;;;;;;20.58;7.43;;;9.30;99.90;;;;;;5110921;28;20119;-77
2022/11/25 07:33:43;;;;;;;16.58;6.65;;;8.70;99.90;;;;;;5078368;28;20047;-77
2022/11/25 07:36:11;;;;;;;14.10;6.63;;;8.70;99.90;;;;;;5077704;28;20420;-78
2022/11/25 07:38:38;;;;;;;18.42;6.50;;;8.70;99.90;;;;;;5125033;27;20046;-77
2022/11/25 07:41:09;;;;;;;19.17;6.63;;;9.60;99.90;;;;;;5115044;27;20047;-77
2022/11/25 07:43:35;;;;;;;11.10;5.65;;;9.40;99.90;;;;;;5114134;27;20045;-77
2022/11/25 07:46:11;;;;;;;16.38;6.43;;;8.80;99.90;;;;;;5133424;27;20146;-79
2022/11/25 07:48:37;;;;;;;14.30;5.88;;;8.90;99.90;;;;;;5115438;27;20058;-77
2022/11/25 07:51:03;;;;;;;13.93;6.28;;;8.90;99.90;;;;;;5133859;27;20444;-77
2022/11/25 07:53:28;;;;;;;15.10;6.13;;;8.90;99.90;;;;;;5132904;27;20095;-77
2022/11/25 07:55:54;;;;;;;12.93;6.80;;;8.90;99.90;;;;;;5098107;27;20082;-77
2022/11/25 07:58:20;;;;;;;12.95;5.65;;;9.10;99.90;;;;;;5133104;27;20477;-77
2022/11/25 08:00:45;;;;;;;13.73;5.70;;;9.40;99.90;;;;;;5114841;27;20074;-77
2022/11/25 08:03:11;;;;;;;11.27;4.95;;;8.90;99.90;;;;;;5132969;27;20043;-77
2022/11/25 08:05:37;;;;;;;16.83;5.38;;;8.90;99.90;;;;;;5130714;27;20039;-78
2022/11/25 08:08:02;;;;;;;10.43;5.03;;;9.80;99.90;;;;;;5117964;27;20039;-77
2022/11/25 08:10:28;;;;;;;12.13;5.65;;;9.00;99.90;;;;;;5113451;27;20384;-77
2022/11/25 08:12:54;;;;;;;11.18;4.85;;;9.00;99.90;;;;;;5114021;27;20043;-77
2022/11/25 08:15:19;;;;;;;10.43;4.35;;;9.20;99.90;;;;;;5105627;27;20387;-78
2022/11/25 08:17:45;;;;;;;13.07;4.28;;;9.00;99.90;;;;;;5108067;28;20126;-77
2022/11/25 08:20:11;;;;;;;14.52;4.45;;;9.00;99.90;;;;;;5121527;27;20437;-77
2022/11/25 08:22:36;;;;;;;10.38;4.40;;;9.00;99.90;;;;;;5095293;27;20039;-77
2022/11/25 08:25:02;;;;;;;13.70;4.50;;;9.10;99.90;;;;;;5131731;27;20127;-77
2022/11/25 08:27:28;;;;;;;12.18;4.57;;;9.20;99.90;;;;;;5133076;27;20069;-77
2022/11/25 08:29:53;;;;;;;15.75;4.90;;;9.30;99.90;;;;;;5131251;27;20042;-77
2022/11/25 08:32:19;;;;;;;12.88;4.80;;;9.30;99.90;;;;;;5113923;28;20048;-78
2022/11/25 08:34:45;;;;;;;10.43;4.60;;;10.70;99.90;;;;;;5114044;28;20143;-78
2022/11/25 08:37:10;;;;;;;10.20;3.95;;;10.20;99.90;;;;;;5131884;28;20043;-78
2022/11/25 08:39:36;;;;;;;11.15;4.60;;;10.90;99.90;;;;;;5130621;28;20138;-78
2022/11/25 08:42:04;;;;;;;10.02;4.80;;;9.70;99.90;;;;;;5095682;28;20043;-76
2022/11/25 08:44:29;;;;;;;8.75;3.85;;;9.70;99.90;;;;;;5099905;28;20043;-79
2022/11/25 08:46:55;;;;;;;8.85;3.90;;;9.70;99.90;;;;;;5075010;28;20119;-76
2022/11/25 08:49:21;;;;;;;8.45;4.40;;;9.80;99.90;;;;;;5092050;28;20502;-79
2022/11/25 08:51:47;;;;;;;15.32;4.40;;;9.90;99.90;;;;;;5110105;28;20043;-78
2022/11/25 08:54:13;;;;;;;9.63;3.55;;;10.00;99.90;;;;;;5108830;28;20061;-78
2022/11/25 08:56:39;;;;;;;14.98;4.28;;;10.80;99.90;;;;;;5109945;28;20118;-79
2022/11/25 08:59:05;;;;;;;7.78;3.72;;;10.30;99.90;;;;;;5114217;28;20079;-76
2022/11/25 09:01:31;;;;;;;9.60;4.00;;;12.00;99.90;;;;;;5113168;28;20411;-78
2022/11/25 09:03:57;;;;;;;10.05;3.65;;;;;;;;;;5114301;28;20070;-79
2022/11/25 09:06:25;;;;;;;12.80;3.63;;;;;;;;;;5114260;27;20074;-79
2022/11/25 09:08:50;;;;;;;8.25;3.58;;;;;;;;;;5117538;27;20096;-79
2022/11/25 09:11:17;;;;;;;9.48;3.58;;;;;;;;;;5117974;27;20043;-79
2022/11/25 09:13:43;;;;;;;9.85;4.00;;;;;;;;;;5136879;27;20039;-78
2022/11/25 09:16:09;;;;;;;8.13;3.30;;;;;;;;;;5115975;27;20050;-79
2022/11/25 09:18:35;;;;;;;10.48;3.72;;;;;;;;;;5135591;27;20129;-79
2022/11/25 09:21:07;;;;;;;11.95;3.63;;;;;;;;;;5118007;27;20050;-77
2022/11/25 09:23:33;;;;;;;9.77;3.65;;;;;;;;;;5117786;27;20111;-79
2022/11/25 09:25:59;;;;;;;9.20;3.00;;;;;;;;;;5124776;27;20475;-79
2022/11/25 09:28:26;;;;;;;9.18;3.42;;;;;;;;;;5116067;28;20043;-77
2022/11/25 09:30:52;;;;;;;9.30;3.63;;;;;;;;;;5066252;27;20478;-79
2022/11/25 09:33:19;;;;;;;9.10;3.35;;;;;;;;;;5109173;27;20039;-77
2022/11/25 09:35:47;;;;;;;8.57;3.20;;;;;;;;;;5095950;28;20085;-78
2022/11/25 09:38:13;;;;;;;9.85;3.50;;;;;;;;;;5097316;28;20479;-77
2022/11/25 09:40:39;;;;;;;9.05;3.15;;;;;;;;;;5092609;28;20038;-77
2022/11/25 09:48:52;;;;;;;11.70;3.50;;;;;;;;;;5132141;27;20054;-74
2022/11/25 09:51:20;;;;;;;10.00;3.33;;;;;;;;;;5132827;27;20055;-74
2022/11/25 09:54:07;;;;;;;12.38;3.50;;;;;;;;;;5132807;27;20178;-75
2022/11/25 09:56:45;;;;;;;9.75;3.10;;;;;;;;;;5132981;27;20051;-74
2022/11/25 09:59:11;;;;;;;7.72;3.33;;;;;;;;;;5133324;27;20122;-74
2022/11/25 10:01:49;;;;;;;6.68;3.13;;;;;;;;;;5131553;27;20539;-74
2022/11/25 10:04:26;;;;;;;10.95;3.35;;;;;;;;;;5112260;27;20099;-74
2022/11/25 10:06:55;;;;;;;8.40;3.42;;;;;;;;;;5132173;27;20146;-74
2022/11/25 10:09:26;;;;;;;8.18;3.13;;;;;;;;;;5121154;27;20066;-75
2022/11/25 10:11:53;;;;;;;8.93;3.03;;;;;;;;;;5132437;27;20057;-75
2022/11/25 10:14:29;;;;;;;9.38;3.10;;;;;;;;;;5097091;27;20133;-74
2022/11/25 10:17:14;;;;;;;7.35;2.88;;;;;;;;;;5134836;27;20066;-77
2022/11/25 10:19:43;;;;;;;9.18;3.10;;;;;;;;;;5134165;27;20072;-77
2022/11/25 10:22:26;;;;;;;8.45;3.22;;;;;;;;;;5116712;27;20039;-78
2022/11/25 10:24:59;;;;;;;8.13;2.90;;;;;;;;;;5133867;27;20127;-79
2022/11/25 10:27:35;;;;;;;9.23;2.83;;;;;;;;;;5113919;27;20042;-79
2022/11/25 10:30:07;;;;;;;10.02;3.03;;;;;;;;;;5114224;27;20043;-79
2022/11/25 10:32:38;;;;;;;9.85;3.05;;;;;;;;;;5109491;27;20047;-79
2022/11/25 10:35:07;;;;;;;7.90;3.00;;;;;;;;;;5111881;27;20380;-80
2022/11/25 10:37:36;;;;;;;9.60;3.35;;;;;;;;;;5084610;27;20432;-79
2022/11/25 10:40:02;;;;;;;8.52;3.05;;;;;;;;;;5112797;27;20042;-80
2022/11/25 10:42:29;;;;;;;8.75;3.15;;;;;;;;;;5112172;28;20108;-79
2022/11/25 10:44:55;;;;;;;10.07;3.05;;;;;;;;;;5112945;27;20058;-80
2022/11/25 10:47:40;;;;;;;10.27;3.25;;;;;;;;;;5135006;27;20135;-79
2022/11/25 10:50:24;;;;;;;7.63;2.65;;;;;;;;;;5134679;27;20054;-80
2022/11/25 10:52:58;;;;;;;8.43;3.03;;;;;;;;;;5134514;27;20086;-79
2022/11/25 10:55:25;;;;;;;10.57;3.10;;;;;;;;;;5114420;27;20046;-80
2022/11/25 10:57:55;;;;;;;6.50;2.83;;;;;;;;;;5113078;27;20569;-79
2022/11/25 11:00:27;;;;;;;12.18;3.00;;;;;;;;;;5131702;27;20170;-79
2022/11/25 11:02:53;;;;;;;10.57;2.95;;;;;;;;;;5131711;27;20051;-79
2022/11/25 11:05:25;;;;;;;12.85;3.22;;;;;;;;;;5112626;27;20188;-79
2022/11/25 11:08:09;;;;;;;9.43;2.92;;;;;;;;;;5096305;27;20451;-80
2022/11/25 11:10:36;;;;;;;8.35;2.65;;;;;;;;;;5129787;27;20122;-79
2022/11/25 11:13:03;;;;;;;10.48;3.05;;;;;;;;;;5095045;27;20047;-79
2022/11/25 11:15:30;;;;;;;10.27;2.88;;;;;;;;;;5093139;28;20047;-79
2022/11/25 11:17:57;;;;;;;8.73;2.58;;;;;;;;;;5107375;27;20130;-79
2022/11/25 11:20:25;;;;;;;7.22;2.65;;;;;;;;;;5133224;27;20407;-79
2022/11/25 11:22:54;;;;;;;9.60;2.80;;;;;;;;;;5114343;27;20411;-79
2022/11/25 11:25:20;;;;;;;7.75;2.75;;;10.80;99.90;;;;;;5113974;27;20051;-79
2022/11/25 11:27:48;;;;;;;8.13;2.95;;;18.70;99.90;;;;;;5113686;27;20035;-76
2022/11/25 11:30:19;;;;;;;10.80;2.70;;;18.60;99.90;;;;;;5114243;27;20058;-80
2022/11/25 11:33:03;;;;;;;7.20;2.70;;;18.50;99.90;;;;;;5115194;27;20048;-76
2022/11/25 11:35:36;;;;;;;11.43;3.42;;;18.00;99.90;;;;;;5112967;27;20035;-79
2022/11/25 11:38:18;;;;;;;11.10;3.15;;;17.30;99.90;;;;;;5099627;28;20047;-79
2022/11/25 11:40:49;;;;;;;9.35;2.95;;;16.90;99.90;;;;;;5127749;27;20411;-78
2022/11/25 11:43:39;;;;;;;9.90;2.80;;;16.60;99.90;;;;;;5128233;27;20046;-79
2022/11/25 11:46:13;;;;;;;10.57;3.03;;;16.80;99.90;;;;;;5087542;28;20134;-79
2022/11/25 11:49:01;;;;;;;10.93;2.95;;;17.00;99.90;;;;;;5083391;27;20050;-79
2022/11/25 11:51:52;;;;;;;9.02;2.90;;;17.20;99.90;;;;;;5109806;28;20055;-74
2022/11/25 11:54:28;;;;;;;9.00;3.15;;;17.70;99.90;;;;;;5115831;27;20111;-72
2022/11/25 11:57:04;;;;;;;12.35;3.10;;;17.70;99.90;;;;;;5130581;27;20069;-72
2022/11/25 11:59:50;;;;;;;13.15;2.97;;;17.60;99.90;;;;;;5129450;27;20044;-72
2022/11/25 12:02:30;;;;;;;9.85;2.80;;;17.30;99.90;;;;;;5130066;27;20452;-72
2022/11/25 12:05:05;;;;;;;8.30;2.80;;;17.30;99.90;;;;;;5093153;27;20043;-73
2022/11/25 12:08:02;;;;;;;9.48;2.85;;;17.50;99.90;;;;;;5127414;27;20088;-73
2022/11/25 12:11:02;;;;;;;10.27;3.35;;;18.30;99.90;;;;;;5101446;28;20138;-74
2022/11/25 12:14:00;;;;;;;9.90;2.90;;;19.00;99.90;;;;;;5094458;27;20180;-73
2022/11/25 12:16:28;;;;;;;10.18;2.78;;;18.90;99.90;;;;;;5073174;27;20126;-73
2022/11/25 12:19:19;;;;;;;10.40;2.55;;;18.60;99.90;;;;;;5124851;27;20119;-73
2022/11/25 12:21:54;;;;;;;11.05;2.90;;;19.40;99.90;;;;;;5130269;27;20084;-73
2022/11/25 12:24:35;;;;;;;14.67;3.47;;;20.30;99.90;;;;;;5130477;27;20039;-73
2022/11/25 12:27:09;;;;;;;11.10;3.25;;;20.70;99.90;;;;;;5130305;27;20645;-73
2022/11/25 12:29:46;;;;;;;11.77;2.88;;;21.40;99.90;;;;;;5121300;27;20040;-73
2022/11/25 12:32:36;;;;;;;12.65;2.92;;;21.70;99.90;;;;;;5083588;28;20043;-80
2022/11/25 12:35:13;;;;;;;11.02;3.05;;;21.30;99.90;;;;;;5093758;28;20044;-79
2022/11/25 12:37:42;;;;;;;10.52;3.03;;;22.00;99.90;;;;;;5103898;28;20066;-80
2022/11/25 12:40:17;;;;;;;14.48;2.92;;;21.90;99.70;;;;;;5126591;27;20466;-80
2022/11/25 12:42:45;;;;;;;11.82;3.38;;;20.90;99.90;;;;;;5129717;27;20152;-80
2022/11/25 12:45:23;;;;;;;11.20;3.05;;;19.90;99.90;;;;;;5111178;28;20148;-80
2022/11/25 12:47:49;;;;;;;16.38;2.95;;;20.00;99.90;;;;;;5097385;28;20153;-75
2022/11/25 12:50:25;;;;;;;14.30;2.92;;;20.30;99.90;;;;;;5113626;27;20067;-75
2022/11/25 12:53:26;;;;;;;14.30;3.13;;;20.60;99.90;;;;;;5112027;28;20079;-75
2022/11/25 12:55:53;;;;;;;13.65;2.92;;;21.30;99.90;;;;;;5113277;28;20090;-75
2022/11/25 12:58:25;;;;;;;10.20;2.75;;;22.00;99.90;;;;;;5112071;28;20075;-75
2022/11/25 13:01:15;;;;;;;14.07;3.17;;;22.50;99.40;;;;;;5101918;28;20054;-76
2022/11/25 13:03:54;;;;;;;12.80;3.33;;;22.80;98.80;;;;;;5111620;28;20036;-78
2022/11/25 13:06:20;;;;;;;13.27;3.35;;;22.50;98.30;;;;;;5114461;28;20290;-78
2022/11/25 13:08:55;;;;;;;15.30;3.50;;;22.20;98.50;;;;;;5115053;28;20082;-78
2022/11/25 13:11:59;;;;;;;10.38;3.13;;;21.20;99.30;;;;;;5096566;28;20059;-78
2022/11/25 13:14:45;;;;;;;12.05;2.67;;;20.00;99.90;;;;;;5112724;28;20583;-78
2022/11/25 13:17:13;;;;;;;11.63;2.75;;;19.00;99.90;;;;;;5077645;28;20105;-79
2022/11/25 13:19:39;;;;;;;14.55;3.00;;;17.90;99.90;;;;;;5097903;28;20313;-79
2022/11/25 13:22:28;;;;;;;13.45;2.85;;;17.80;99.90;;;;;;5114202;28;20119;-79